Terminal Aerodrome Forecast
Issued by NWS Sterling, VA

Home | Current Version | Previous Version | Text Only | Print | Product List | Glossary On
Versions: 1 2 3 4 5 6 7 8 9 10 11 12 13 14 15 16 17 18 19 20 21 22 23
000
FTUS41 KLWX 200800 AAA
TAFIAD
TAF AMD
KIAD 200847Z 2009/2112 00000KT P6SM FEW200
     FM201400 18007KT P6SM SCT200
     FM201800 19012G18KT P6SM BKN180
     FM210000 20003KT P6SM BKN080
     FM211100 00000KT P6SM SCT060=

USA.gov is the U.S. government's official web portal to all federal, state and local government web resources and services.